Time;durP1;ratioP1;P1;durP2;ratioP2;P2;SDS_P1;SDS_P2;PMS_P1;PMS_P2;Temp;Humidity;BMP_temperature;BMP_pressure;BME280_temperature;BME280_humidity;BME280_pressure;Samples;Min_cycle;Max_cycle;Signal;HPM_P1;HPM_P2
2021/05/22 00:02:26;;;;;;;3.78;1.08;;;13.80;63.40;;;;;;4972203;28;20030;-66
2021/05/22 00:04:52;;;;;;;2.20;0.93;;;13.80;63.30;;;;;;4987316;28;20030;-68
2021/05/22 00:07:18;;;;;;;1.20;0.93;;;13.80;63.70;;;;;;4980548;28;20516;-67
2021/05/22 00:09:46;;;;;;;1.02;0.93;;;13.80;63.40;;;;;;4980667;28;20077;-67
2021/05/22 00:12:12;;;;;;;1.77;1.20;;;13.80;63.60;;;;;;4974611;28;20033;-67
2021/05/22 00:14:41;;;;;;;2.30;1.20;;;13.90;62.90;;;;;;4973720;28;20034;-67
2021/05/22 00:17:06;;;;;;;2.15;1.10;;;13.80;63.20;;;;;;4991295;28;20041;-67
2021/05/22 00:19:32;;;;;;;1.63;1.00;;;13.80;63.80;;;;;;4981770;28;20022;-68
2021/05/22 00:21:58;;;;;;;2.55;1.10;;;13.80;63.90;;;;;;4974960;28;20018;-67
2021/05/22 00:24:23;;;;;;;1.80;0.85;;;13.80;63.40;;;;;;4972181;28;20027;-67
2021/05/22 00:26:49;;;;;;;3.40;1.13;;;13.70;63.40;;;;;;4986804;28;20500;-67
2021/05/22 00:29:15;;;;;;;4.35;1.60;;;13.70;63.70;;;;;;4980095;28;20026;-66
2021/05/22 00:31:42;;;;;;;1.70;1.27;;;13.70;64.10;;;;;;4980784;28;20023;-68
2021/05/22 00:34:08;;;;;;;2.33;1.00;;;13.80;63.70;;;;;;4987207;28;20018;-67
2021/05/22 00:36:36;;;;;;;1.73;1.05;;;13.70;63.40;;;;;;4974663;28;20066;-67
2021/05/22 00:39:03;;;;;;;3.33;0.80;;;13.70;63.20;;;;;;4985921;28;20061;-67
2021/05/22 00:41:28;;;;;;;2.08;1.33;;;13.70;63.50;;;;;;4982072;28;20014;-67
2021/05/22 00:43:54;;;;;;;2.15;0.98;;;13.70;63.10;;;;;;4980586;28;20703;-68
2021/05/22 00:46:20;;;;;;;1.00;0.90;;;13.60;63.60;;;;;;4991067;28;20549;-67
2021/05/22 00:48:45;;;;;;;1.45;0.90;;;13.60;63.50;;;;;;4987680;28;20026;-65
2021/05/22 00:51:11;;;;;;;3.88;1.52;;;13.70;63.70;;;;;;4979461;28;20038;-66
2021/05/22 00:53:36;;;;;;;1.30;0.90;;;13.60;63.40;;;;;;4970947;28;20030;-66
2021/05/22 00:56:05;;;;;;;3.40;1.08;;;13.60;63.70;;;;;;4985867;28;20034;-64
2021/05/22 00:58:36;;;;;;;1.75;1.15;;;13.60;63.20;;;;;;4975129;28;20154;-66
2021/05/22 01:01:03;;;;;;;1.45;0.90;;;13.60;63.30;;;;;;4989203;28;20029;-67
2021/05/22 01:03:37;;;;;;;4.32;2.00;;;13.60;63.20;;;;;;4991446;28;20031;-66
2021/05/22 01:06:27;;;;;;;1.73;1.00;;;13.70;62.60;;;;;;4991039;28;20026;-66
2021/05/22 01:08:58;;;;;;;2.53;0.95;;;13.70;62.40;;;;;;4976910;28;20022;-67
2021/05/22 01:11:39;;;;;;;2.60;1.00;;;13.70;62.60;;;;;;4973817;28;20045;-67
2021/05/22 01:14:14;;;;;;;2.10;1.20;;;13.60;62.20;;;;;;5009466;22;21241;-69
2021/05/22 01:16:42;;;;;;;3.05;0.88;;;13.70;62.50;;;;;;5030311;28;20346;-69
2021/05/22 01:19:11;;;;;;;1.30;1.00;;;13.60;62.50;;;;;;5021810;28;20075;-69
2021/05/22 01:21:38;;;;;;;3.63;1.50;;;13.70;62.60;;;;;;5022646;28;20030;-70
2021/05/22 01:24:08;;;;;;;1.48;0.88;;;13.60;62.40;;;;;;5029446;28;20034;-70
2021/05/22 01:26:34;;;;;;;1.10;0.73;;;13.60;62.70;;;;;;5017198;28;20030;-70
2021/05/22 01:29:01;;;;;;;0.90;0.80;;;13.60;62.90;;;;;;5028542;28;20029;-69
2021/05/22 01:31:27;;;;;;;2.42;0.82;;;13.60;62.30;;;;;;5024071;28;20514;-70
2021/05/22 01:33:52;;;;;;;3.33;1.15;;;13.60;62.10;;;;;;5021467;28;20034;-70
2021/05/22 01:36:18;;;;;;;1.50;1.00;;;13.60;62.50;;;;;;5028766;28;20029;-69
2021/05/22 01:38:44;;;;;;;1.95;0.90;;;13.60;61.80;;;;;;5018180;28;20363;-70
2021/05/22 01:41:09;;;;;;;1.48;0.95;;;13.50;62.30;;;;;;5026760;28;20109;-70
2021/05/22 01:43:44;;;;;;;1.38;1.25;;;13.50;63.10;;;;;;5024906;28;20026;-70
2021/05/22 01:46:09;;;;;;;2.17;0.75;;;13.50;62.70;;;;;;5024625;28;20391;-69
2021/05/22 01:48:36;;;;;;;2.15;0.70;;;13.50;62.90;;;;;;5017365;28;20117;-69
2021/05/22 01:51:07;;;;;;;2.40;0.85;;;13.40;63.20;;;;;;5026578;28;20026;-70
2021/05/22 01:53:38;;;;;;;2.42;1.05;;;13.40;63.20;;;;;;5024359;28;20084;-70
2021/05/22 01:56:05;;;;;;;2.30;0.85;;;13.30;64.30;;;;;;5018722;28;20105;-69
2021/05/22 01:58:31;;;;;;;1.95;1.00;;;13.20;63.40;;;;;;5030124;28;20026;-70
2021/05/22 02:00:57;;;;;;;1.58;0.85;;;13.20;63.90;;;;;;5019537;28;20080;-70
2021/05/22 02:03:33;;;;;;;1.83;0.90;;;13.30;64.20;;;;;;5024885;28;20021;-70
2021/05/22 02:06:01;;;;;;;1.73;1.10;;;13.20;64.10;;;;;;5026448;28;20480;-70
2021/05/22 02:08:28;;;;;;;2.88;0.98;;;13.20;64.10;;;;;;5017876;28;20041;-69
2021/05/22 02:10:55;;;;;;;1.15;1.00;;;13.30;64.30;;;;;;5029147;28;20026;-68
2021/05/22 02:13:20;;;;;;;1.73;1.20;;;13.30;63.70;;;;;;5022623;28;20104;-69
2021/05/22 02:15:59;;;;;;;1.48;0.85;;;13.30;64.00;;;;;;5021216;28;20105;-69
2021/05/22 02:18:28;;;;;;;2.22;1.10;;;13.30;64.20;;;;;;5012169;28;20046;-69
2021/05/22 02:20:57;;;;;;;1.38;1.20;;;13.30;63.90;;;;;;5017678;28;20564;-69
2021/05/22 02:23:24;;;;;;;1.00;0.90;;;13.30;64.00;;;;;;5024456;28;20046;-69
2021/05/22 02:25:54;;;;;;;1.02;0.93;;;13.30;64.20;;;;;;5023299;28;20057;-69
2021/05/22 02:28:19;;;;;;;1.35;0.73;;;13.40;64.30;;;;;;5016108;28;20034;-68
2021/05/22 02:30:46;;;;;;;2.97;0.93;;;13.40;64.20;;;;;;5029505;28;20029;-69
2021/05/22 02:33:14;;;;;;;3.45;1.30;;;13.40;63.60;;;;;;5021053;28;20045;-69
2021/05/22 02:35:41;;;;;;;2.17;0.80;;;13.40;64.10;;;;;;5021782;28;20030;-69
2021/05/22 02:38:12;;;;;;;1.02;0.77;;;13.40;63.80;;;;;;5027818;28;20029;-69
2021/05/22 02:40:41;;;;;;;1.10;0.88;;;13.40;63.80;;;;;;4998937;28;20084;-68
2021/05/22 02:43:11;;;;;;;0.93;0.80;;;13.50;63.70;;;;;;5025065;28;20430;-69
2021/05/22 02:45:40;;;;;;;5.88;1.75;;;13.50;63.70;;;;;;5011632;28;20029;-68
2021/05/22 02:48:08;;;;;;;2.83;1.02;;;13.50;63.80;;;;;;5027442;28;20033;-68
2021/05/22 02:50:35;;;;;;;0.85;0.80;;;13.50;63.80;;;;;;5016425;28;20026;-69
2021/05/22 02:53:02;;;;;;;1.98;1.17;;;13.50;63.70;;;;;;5025824;28;20495;-69
2021/05/22 02:55:29;;;;;;;1.20;0.93;;;13.50;63.70;;;;;;5022746;28;20506;-69
2021/05/22 02:57:55;;;;;;;0.85;0.80;;;13.60;63.50;;;;;;5017257;28;20030;-69
2021/05/22 03:00:22;;;;;;;1.42;1.00;;;13.50;63.50;;;;;;5027918;28;20064;-69
2021/05/22 03:02:48;;;;;;;0.70;0.70;;;13.50;63.40;;;;;;5016289;28;20022;-69
2021/05/22 03:05:14;;;;;;;0.77;0.73;;;13.60;63.60;;;;;;5025247;28;20538;-69
2021/05/22 03:07:40;;;;;;;1.00;0.90;;;13.60;63.60;;;;;;5023827;28;20026;-68
2021/05/22 03:10:07;;;;;;;1.52;1.00;;;13.50;63.30;;;;;;5017491;28;20068;-68
2021/05/22 03:12:35;;;;;;;1.45;0.77;;;13.60;63.50;;;;;;5015823;28;20097;-69
2021/05/22 03:15:04;;;;;;;1.83;1.20;;;13.50;63.90;;;;;;5026274;28;20415;-69
2021/05/22 03:17:29;;;;;;;1.92;0.90;;;13.40;64.10;;;;;;5021790;28;20025;-69
2021/05/22 03:19:55;;;;;;;4.45;1.10;;;13.40;64.10;;;;;;5018930;28;20032;-69
2021/05/22 03:22:20;;;;;;;1.25;0.80;;;13.50;63.80;;;;;;5028833;28;20151;-69
2021/05/22 03:24:46;;;;;;;1.70;1.10;;;13.40;64.10;;;;;;5016805;28;20022;-69
2021/05/22 03:27:11;;;;;;;2.42;1.30;;;13.40;64.00;;;;;;5024523;28;20029;-69
2021/05/22 03:29:37;;;;;;;1.98;1.05;;;13.40;64.70;;;;;;5023539;28;20021;-70
2021/05/22 03:32:03;;;;;;;3.90;1.33;;;13.50;63.80;;;;;;5017655;28;20053;-69
2021/05/22 03:34:30;;;;;;;3.72;1.15;;;13.40;64.10;;;;;;5028640;28;20031;-69
2021/05/22 03:36:56;;;;;;;2.92;0.98;;;13.50;64.30;;;;;;5016450;28;20032;-69
2021/05/22 03:39:21;;;;;;;1.20;0.80;;;13.50;64.20;;;;;;5023247;28;20034;-69
2021/05/22 03:41:47;;;;;;;1.67;0.90;;;13.50;64.00;;;;;;5024333;28;20017;-69
2021/05/22 03:44:12;;;;;;;1.35;0.77;;;13.50;63.80;;;;;;5015946;28;20022;-69
2021/05/22 03:46:38;;;;;;;1.98;1.00;;;13.50;64.60;;;;;;5026209;28;20033;-69
2021/05/22 03:49:03;;;;;;;2.22;0.93;;;13.50;64.10;;;;;;5018534;28;20484;-69
2021/05/22 03:51:29;;;;;;;1.08;0.80;;;13.50;64.00;;;;;;5021924;28;20030;-69
2021/05/22 03:53:55;;;;;;;1.05;0.77;;;13.40;64.90;;;;;;5025424;28;20079;-69
2021/05/22 03:56:21;;;;;;;1.10;0.93;;;13.40;64.60;;;;;;5014330;28;20037;-70
2021/05/22 03:58:46;;;;;;;2.55;1.45;;;13.40;64.30;;;;;;5027971;28;20057;-70
2021/05/22 04:01:12;;;;;;;0.82;0.73;;;13.30;64.40;;;;;;5018096;28;20022;-69
2021/05/22 04:03:37;;;;;;;3.42;1.08;;;13.40;65.00;;;;;;5020581;28;20026;-69
2021/05/22 04:06:05;;;;;;;1.23;0.80;;;13.40;64.70;;;;;;5024214;28;20026;-69
2021/05/22 04:08:31;;;;;;;1.90;1.02;;;13.40;64.90;;;;;;5014849;28;20651;-69
2021/05/22 04:10:58;;;;;;;2.60;0.75;;;13.50;64.50;;;;;;5020401;28;20054;-70
2021/05/22 04:13:24;;;;;;;2.45;0.90;;;13.40;64.50;;;;;;5020934;28;20476;-69
2021/05/22 04:15:49;;;;;;;2.05;0.80;;;13.40;64.50;;;;;;5018577;28;20034;-70
2021/05/22 04:18:15;;;;;;;1.58;1.23;;;13.50;64.80;;;;;;5025602;28;20040;-69
2021/05/22 04:20:41;;;;;;;2.75;1.00;;;13.50;64.20;;;;;;5014809;28;20093;-69
2021/05/22 04:23:07;;;;;;;3.47;1.13;;;13.60;64.50;;;;;;5024593;28;20025;-69
2021/05/22 04:25:32;;;;;;;1.33;0.90;;;13.60;64.30;;;;;;5021562;28;20479;-69
2021/05/22 04:27:58;;;;;;;1.27;0.90;;;13.70;63.80;;;;;;5016699;28;20030;-69
2021/05/22 04:30:24;;;;;;;2.25;0.70;;;13.80;63.80;;;;;;5027725;28;20041;-69
2021/05/22 04:32:49;;;;;;;4.00;0.80;;;13.70;63.80;;;;;;5014811;28;20095;-69
2021/05/22 04:35:16;;;;;;;2.83;1.27;;;13.70;63.40;;;;;;5021840;28;20030;-69
2021/05/22 04:37:42;;;;;;;1.10;0.90;;;13.70;63.90;;;;;;5022261;28;20100;-69
2021/05/22 04:40:08;;;;;;;4.20;1.58;;;13.70;64.00;;;;;;5015905;28;20057;-69
2021/05/22 04:42:33;;;;;;;1.00;0.90;;;13.70;63.90;;;;;;5027212;28;20099;-69
2021/05/22 04:44:59;;;;;;;4.50;1.33;;;13.70;64.10;;;;;;5011237;28;20054;-70
2021/05/22 04:47:25;;;;;;;1.73;0.90;;;13.70;63.70;;;;;;5020083;28;20025;-69
2021/05/22 04:49:51;;;;;;;1.73;0.73;;;13.60;64.30;;;;;;5022444;28;20041;-69
2021/05/22 04:52:16;;;;;;;3.13;1.05;;;13.60;64.10;;;;;;5031762;28;20032;-70
2021/05/22 04:54:42;;;;;;;2.35;1.00;;;13.70;63.80;;;;;;5000834;28;20022;-69
2021/05/22 04:57:07;;;;;;;0.95;0.80;;;13.70;64.30;;;;;;5027313;28;20044;-69
2021/05/22 04:59:33;;;;;;;1.27;1.08;;;13.80;64.20;;;;;;5025651;28;20438;-68
2021/05/22 05:01:59;;;;;;;1.73;0.88;;;13.90;63.50;;;;;;5021123;28;20084;-68
2021/05/22 05:04:24;;;;;;;1.27;1.15;;;13.90;63.60;;;;;;5029999;28;20021;-68
2021/05/22 05:06:51;;;;;;;2.90;1.05;;;13.80;64.00;;;;;;5017690;28;20079;-69
2021/05/22 05:09:16;;;;;;;4.10;1.15;;;13.80;65.00;;;;;;5026569;28;20030;-69
2021/05/22 05:11:42;;;;;;;1.20;0.73;;;14.00;62.10;;;;;;5016397;28;20037;-69
2021/05/22 05:14:07;;;;;;;2.03;1.17;;;14.00;63.50;;;;;;5028657;28;20056;-69
2021/05/22 05:16:33;;;;;;;2.63;1.30;;;14.20;62.80;;;;;;5017343;28;20037;-69
2021/05/22 05:18:59;;;;;;;2.03;1.15;;;14.30;62.30;;;;;;5028838;28;20420;-68
2021/05/22 05:21:24;;;;;;;4.85;2.60;;;14.40;61.10;;;;;;5024243;28;20096;-69
2021/05/22 05:23:50;;;;;;;43.50;31.00;;;14.50;59.40;;;;;;5021541;28;20052;-69
2021/05/22 05:26:15;;;;;;;7.18;4.22;;;14.50;60.10;;;;;;5028791;28;20013;-68
2021/05/22 05:28:41;;;;;;;33.75;23.75;;;14.60;60.00;;;;;;5016151;28;20025;-68
2021/05/22 05:31:06;;;;;;;5.57;3.63;;;14.70;59.10;;;;;;5026139;28;20026;-70
2021/05/22 05:33:32;;;;;;;1.73;0.95;;;14.70;59.40;;;;;;5024878;28;20022;-70
2021/05/22 05:35:58;;;;;;;4.10;1.33;;;14.70;58.90;;;;;;5019131;28;20030;-69
2021/05/22 05:38:24;;;;;;;1.95;0.90;;;14.70;58.90;;;;;;5029979;28;20060;-70
2021/05/22 05:40:49;;;;;;;1.80;1.00;;;14.50;59.00;;;;;;5018056;28;20072;-70
2021/05/22 05:43:18;;;;;;;1.65;0.77;;;14.50;60.30;;;;;;5026718;28;20388;-69
2021/05/22 05:45:43;;;;;;;2.38;1.25;;;14.40;60.40;;;;;;5014310;28;20412;-70
2021/05/22 05:48:09;;;;;;;4.80;1.65;;;14.40;61.00;;;;;;5027678;28;20053;-69
2021/05/22 05:50:35;;;;;;;2.70;1.05;;;14.30;62.10;;;;;;5016279;28;20476;-69
2021/05/22 05:53:02;;;;;;;4.35;1.40;;;14.10;66.50;;;;;;5027775;28;20045;-70
2021/05/22 05:55:27;;;;;;;0.93;0.55;;;13.70;72.90;;;;;;5023615;28;20025;-69
2021/05/22 05:57:57;;;;;;;1.65;0.80;;;13.10;73.80;;;;;;5019820;28;20034;-69
2021/05/22 06:00:24;;;;;;;1.60;0.80;;;12.60;75.00;;;;;;5029782;28;20078;-69
2021/05/22 06:02:50;;;;;;;0.68;0.68;;;12.30;77.00;;;;;;5018584;28;20025;-69
2021/05/22 06:05:16;;;;;;;0.98;0.82;;;12.10;78.50;;;;;;5025661;28;20018;-70
2021/05/22 06:07:41;;;;;;;0.70;0.57;;;12.10;79.40;;;;;;5024631;28;20044;-70
2021/05/22 06:10:08;;;;;;;2.20;0.80;;;12.10;79.00;;;;;;5018720;28;20029;-71
2021/05/22 06:12:34;;;;;;;0.68;0.55;;;12.30;79.70;;;;;;5017392;28;20033;-70
2021/05/22 06:15:48;;;;;;;1.38;0.55;;;12.30;76.90;;;;;;5027746;28;20038;-70
2021/05/22 06:17:52;;;;;;;1.55;0.55;;;12.50;75.70;;;;;;5017309;28;20037;-70
2021/05/22 06:20:18;;;;;;;3.42;1.15;;;12.60;75.10;;;;;;5015778;28;20108;-70
2021/05/22 06:22:44;;;;;;;1.63;0.75;;;12.80;74.30;;;;;;5028438;28;20049;-70
2021/05/22 06:25:10;;;;;;;2.83;0.63;;;13.00;72.10;;;;;;5020811;28;20064;-69
2021/05/22 06:27:36;;;;;;;2.22;0.55;;;13.10;69.80;;;;;;5021814;28;20022;-70
2021/05/22 06:30:06;;;;;;;2.08;0.70;;;13.40;68.80;;;;;;5028204;28;20035;-70
2021/05/22 06:32:31;;;;;;;3.65;0.80;;;13.60;67.50;;;;;;5016355;28;20030;-69
2021/05/22 06:34:57;;;;;;;3.42;1.08;;;13.60;66.60;;;;;;5027637;28;20046;-70
2021/05/22 06:37:24;;;;;;;0.85;0.60;;;13.70;66.40;;;;;;5021869;28;20029;-70
2021/05/22 06:39:50;;;;;;;3.50;0.90;;;13.90;64.30;;;;;;5018073;28;20022;-69
2021/05/22 06:42:16;;;;;;;1.85;0.55;;;14.00;64.10;;;;;;5015559;28;20108;-69
2021/05/22 06:44:49;;;;;;;1.85;0.40;;;14.30;64.20;;;;;;5020950;28;20025;-69
2021/05/22 06:47:14;;;;;;;2.53;0.57;;;14.50;63.10;;;;;;5024426;28;20421;-69
2021/05/22 06:49:40;;;;;;;2.17;0.75;;;15.00;61.90;;;;;;5027239;28;20040;-69
2021/05/22 06:52:06;;;;;;;4.85;1.20;;;15.10;60.70;;;;;;5020971;28;20029;-69
2021/05/22 06:54:34;;;;;;;2.70;0.88;;;15.30;58.40;;;;;;5032253;28;20378;-69
2021/05/22 06:57:00;;;;;;;2.13;1.10;;;15.50;58.10;;;;;;5021818;28;20025;-69
2021/05/22 06:59:26;;;;;;;1.20;0.60;;;15.70;57.00;;;;;;5023776;28;20026;-69
2021/05/22 07:01:51;;;;;;;1.58;1.08;;;15.90;56.60;;;;;;5024236;28;20079;-70
2021/05/22 07:04:17;;;;;;;1.73;0.75;;;;;;;;;;5016107;28;20018;-70
2021/05/22 07:06:43;;;;;;;1.90;1.02;;;16.70;53.30;;;;;;5028237;28;20559;-69
2021/05/22 07:09:08;;;;;;;2.17;1.00;;;17.10;51.10;;;;;;5018598;28;20446;-70
2021/05/22 07:11:36;;;;;;;2.75;0.70;;;17.20;50.60;;;;;;5021025;28;20030;-70
2021/05/22 07:16:32;;;;;;;1.75;0.57;;;17.50;47.60;;;;;;5066205;22;20110;-66
2021/05/22 07:19:00;;;;;;;1.52;0.73;;;18.20;46.00;;;;;;5038029;28;20458;-67
2021/05/22 07:21:25;;;;;;;1.65;0.68;;;19.90;43.60;;;;;;5041408;28;20037;-67
2021/05/22 07:23:51;;;;;;;2.40;0.98;;;21.20;38.90;;;;;;5043811;28;20398;-67
2021/05/22 07:26:16;;;;;;;4.65;0.98;;;22.50;37.20;;;;;;5034594;28;20026;-67
2021/05/22 07:28:42;;;;;;;1.48;0.50;;;24.10;33.90;;;;;;5048543;28;20101;-67
2021/05/22 07:31:08;;;;;;;2.08;0.73;;;25.10;32.10;;;;;;5039133;28;20234;-66
2021/05/22 07:33:35;;;;;;;1.65;0.80;;;26.00;30.40;;;;;;5041390;28;20025;-67
2021/05/22 07:36:01;;;;;;;2.53;0.85;;;27.00;28.20;;;;;;5045640;28;20458;-66
2021/05/22 07:38:26;;;;;;;3.72;1.00;;;27.00;27.50;;;;;;5034746;28;20033;-67
2021/05/22 07:40:52;;;;;;;3.55;1.00;;;27.00;27.10;;;;;;5045557;28;20495;-66
2021/05/22 07:43:19;;;;;;;2.92;0.80;;;27.70;26.40;;;;;;5040078;28;20053;-67
2021/05/22 07:45:45;;;;;;;5.65;2.22;;;29.00;25.40;;;;;;5041392;28;20114;-67
2021/05/22 07:48:11;;;;;;;3.35;1.13;;;29.60;24.10;;;;;;5035156;28;20479;-67
2021/05/22 07:50:37;;;;;;;1.58;0.70;;;29.50;23.50;;;;;;5047893;28;20791;-67
2021/05/22 07:53:03;;;;;;;4.45;1.23;;;30.40;23.20;;;;;;5037931;28;20025;-66
2021/05/22 07:55:29;;;;;;;2.33;0.80;;;30.10;22.80;;;;;;5041446;28;20335;-67
2021/05/22 07:57:56;;;;;;;3.35;0.68;;;28.40;25.00;;;;;;5044120;28;20495;-66
2021/05/22 08:00:23;;;;;;;2.63;1.02;;;27.20;26.40;;;;;;5034635;28;20018;-66
2021/05/22 08:02:48;;;;;;;1.63;0.90;;;26.80;26.70;;;;;;5045813;28;20396;-66
2021/05/22 08:05:14;;;;;;;4.03;1.02;;;26.00;27.60;;;;;;5039042;28;20031;-66
2021/05/22 08:07:42;;;;;;;2.17;0.80;;;25.20;28.90;;;;;;5038953;28;20064;-65
2021/05/22 08:10:09;;;;;;;3.90;0.68;;;24.90;29.70;;;;;;5046637;28;20455;-67
2021/05/22 08:12:37;;;;;;;2.67;0.90;;;24.10;30.70;;;;;;5019447;28;20141;-65
2021/05/22 08:15:04;;;;;;;5.57;1.00;;;23.70;31.30;;;;;;5044723;28;20025;-66
2021/05/22 08:17:29;;;;;;;3.28;0.80;;;23.20;32.50;;;;;;5040522;28;20101;-65
2021/05/22 08:19:55;;;;;;;2.92;0.80;;;22.90;32.90;;;;;;5037630;28;20143;-64
2021/05/22 08:22:21;;;;;;;2.75;0.80;;;22.50;33.30;;;;;;5047018;28;20029;-66
2021/05/22 08:24:46;;;;;;;3.25;0.90;;;22.00;34.00;;;;;;5035243;28;20099;-66
2021/05/22 08:27:12;;;;;;;1.27;0.65;;;21.30;35.70;;;;;;5042319;28;20116;-66
2021/05/22 08:29:38;;;;;;;3.25;0.98;;;20.70;36.50;;;;;;5042159;28;20541;-66
2021/05/22 08:32:04;;;;;;;1.02;0.50;;;21.80;34.60;;;;;;5034856;28;20116;-66
2021/05/22 08:34:29;;;;;;;3.47;0.80;;;22.80;33.00;;;;;;5046944;28;20053;-66
2021/05/22 08:36:55;;;;;;;1.88;0.77;;;24.40;31.10;;;;;;5035292;28;20020;-67
2021/05/22 08:39:21;;;;;;;2.63;0.80;;;25.50;29.40;;;;;;5041827;28;20074;-66
2021/05/22 08:41:50;;;;;;;2.15;0.90;;;27.10;28.60;;;;;;5042931;28;20090;-66
2021/05/22 08:44:15;;;;;;;1.77;0.70;;;28.50;25.30;;;;;;5034156;28;20018;-66
2021/05/22 08:46:41;;;;;;;2.65;0.85;;;28.70;24.80;;;;;;5045299;28;20104;-66
2021/05/22 08:49:10;;;;;;;2.92;0.73;;;26.80;25.60;;;;;;5037533;28;20092;-65
2021/05/22 08:51:35;;;;;;;88.13;75.72;;;26.00;27.50;;;;;;5039561;28;20588;-66
2021/05/22 08:54:01;;;;;;;7.63;3.72;;;26.00;28.30;;;;;;5045157;28;20025;-66
2021/05/22 08:56:26;;;;;;;2.92;1.63;;;26.20;28.00;;;;;;5032913;28;20527;-66
2021/05/22 08:58:52;;;;;;;2.35;0.95;;;27.30;27.30;;;;;;5046017;28;20044;-66
2021/05/22 09:01:18;;;;;;;3.38;1.02;;;27.90;25.40;;;;;;5039203;28;20017;-66
2021/05/22 09:03:44;;;;;;;3.22;1.00;;;26.20;27.90;;;;;;5038745;28;20164;-66
2021/05/22 09:06:10;;;;;;;2.92;0.70;;;25.00;27.50;;;;;;5044151;28;20558;-65
2021/05/22 09:08:36;;;;;;;5.13;1.27;;;25.00;28.10;;;;;;5033766;28;20035;-66
2021/05/22 09:11:04;;;;;;;2.45;0.75;;;25.50;27.60;;;;;;5039596;28;20096;-66
2021/05/22 09:13:34;;;;;;;3.03;1.00;;;26.00;26.80;;;;;;5029440;28;20043;-66
2021/05/22 09:16:04;;;;;;;3.58;1.13;;;26.60;26.70;;;;;;5035921;28;20033;-66
2021/05/22 09:18:40;;;;;;;3.75;0.80;;;27.50;25.50;;;;;;5046648;28;20055;-66
2021/05/22 09:21:11;;;;;;;3.50;1.00;;;27.50;24.90;;;;;;5036039;28;20095;-66
2021/05/22 09:23:42;;;;;;;5.75;0.90;;;25.90;25.40;;;;;;5039418;28;20091;-66
2021/05/22 09:26:13;;;;;;;3.78;1.05;;;24.70;27.00;;;;;;5043956;28;20089;-65
2021/05/22 09:28:49;;;;;;;2.40;0.85;;;24.40;27.40;;;;;;5033648;28;20024;-67
2021/05/22 09:31:23;;;;;;;6.43;1.02;;;24.20;27.30;;;;;;5042436;28;20021;-67
2021/05/22 09:33:58;;;;;;;4.13;1.05;;;24.00;27.20;;;;;;5042239;28;20112;-67
2021/05/22 09:36:24;;;;;;;2.75;0.77;;;24.10;28.90;;;;;;5036586;28;20036;-66
2021/05/22 09:38:55;;;;;;;2.78;1.15;;;23.70;29.00;;;;;;5049439;28;20390;-67
2021/05/22 09:41:23;;;;;;;1.58;0.60;;;23.50;30.00;;;;;;5042999;28;20332;-66
2021/05/22 09:44:18;;;;;;;3.60;1.33;;;23.50;29.50;;;;;;5041171;28;20060;-66
2021/05/22 09:46:43;;;;;;;4.57;1.05;;;23.10;29.70;;;;;;5020985;28;20090;-67
2021/05/22 09:49:10;;;;;;;2.90;0.63;;;21.70;32.30;;;;;;5046623;28;20026;-67
2021/05/22 09:52:00;;;;;;;3.03;1.05;;;21.20;32.30;;;;;;5044534;28;20112;-66
2021/05/22 09:54:44;;;;;;;2.78;1.00;;;20.50;33.80;;;;;;5036940;28;20026;-66
2021/05/22 09:57:15;;;;;;;2.83;1.10;;;20.30;33.30;;;;;;5045597;28;20480;-67
2021/05/22 09:59:41;;;;;;;3.55;1.13;;;20.40;33.50;;;;;;5045383;28;20100;-66
2021/05/22 10:02:07;;;;;;;2.78;1.00;;;20.50;33.50;;;;;;5038536;28;20409;-66
2021/05/22 10:04:32;;;;;;;2.50;0.82;;;20.30;33.20;;;;;;5049809;28;20059;-67
2021/05/22 10:06:58;;;;;;;3.00;0.95;;;20.50;34.80;;;;;;5038284;28;20518;-66
2021/05/22 10:09:25;;;;;;;3.45;0.90;;;20.40;33.40;;;;;;5044213;28;20128;-66
2021/05/22 10:12:01;;;;;;;4.53;1.08;;;20.40;33.00;;;;;;5034935;28;20033;-67
2021/05/22 10:14:33;;;;;;;17.98;11.13;;;20.00;32.80;;;;;;5049779;28;20025;-67
2021/05/22 10:17:02;;;;;;;11.43;6.68;;;20.00;34.00;;;;;;5038532;28;20094;-67
2021/05/22 10:19:28;;;;;;;6.68;0.98;;;20.30;33.30;;;;;;5040617;28;20021;-67
2021/05/22 10:21:54;;;;;;;4.45;1.05;;;20.50;32.10;;;;;;5046262;28;20025;-66
2021/05/22 10:24:20;;;;;;;4.93;1.10;;;20.10;32.70;;;;;;5036592;28;20104;-66
2021/05/22 10:26:45;;;;;;;3.10;0.90;;;20.10;32.80;;;;;;5048652;28;20393;-66
2021/05/22 10:29:11;;;;;;;2.70;0.80;;;20.00;32.40;;;;;;5040538;28;20538;-66
2021/05/22 10:31:41;;;;;;;4.07;0.75;;;19.70;32.30;;;;;;5042268;28;20018;-67
2021/05/22 10:34:20;;;;;;;2.72;0.90;;;19.60;33.80;;;;;;5044601;28;20025;-67
2021/05/22 10:36:53;;;;;;;5.72;0.52;;;19.60;34.60;;;;;;5019303;28;20025;-67
2021/05/22 10:39:33;;;;;;;2.83;0.70;;;19.50;32.80;;;;;;5042241;28;20025;-66
2021/05/22 10:41:59;;;;;;;4.93;0.95;;;19.30;32.10;;;;;;5030647;28;20095;-67
2021/05/22 10:44:35;;;;;;;4.30;0.88;;;19.10;32.80;;;;;;5026737;28;20101;-66
2021/05/22 10:47:05;;;;;;;2.10;0.95;;;19.10;33.20;;;;;;5045011;28;20030;-66
2021/05/22 10:49:51;;;;;;;4.72;0.90;;;19.20;32.80;;;;;;5036992;28;20045;-67
2021/05/22 10:52:18;;;;;;;3.58;1.13;;;19.20;33.90;;;;;;5035302;28;20387;-67
2021/05/22 10:55:10;;;;;;;4.85;0.60;;;19.10;33.40;;;;;;5047685;28;20029;-66
2021/05/22 10:57:41;;;;;;;3.47;0.95;;;19.00;34.40;;;;;;5033843;28;20029;-68
2021/05/22 11:00:13;;;;;;;2.22;0.88;;;18.80;34.80;;;;;;5028685;28;20018;-67
2021/05/22 11:02:41;;;;;;;79.15;47.50;;;18.90;34.60;;;;;;5021948;28;20044;-67
2021/05/22 11:05:22;;;;;;;138.35;60.05;;;19.00;34.70;;;;;;5041189;28;20120;-66
2021/05/22 11:07:49;;;;;;;255.63;100.15;;;19.00;34.90;;;;;;5028530;28;20021;-67
2021/05/22 11:10:48;;;;;;;60.08;25.45;;;19.00;35.10;;;;;;5044202;28;20025;-68
2021/05/22 11:13:22;;;;;;;29.02;12.43;;;18.60;34.00;;;;;;5015116;28;20037;-67
2021/05/22 11:15:56;;;;;;;41.97;19.10;;;18.50;34.30;;;;;;5021273;28;20033;-66
2021/05/22 11:18:58;;;;;;;21.02;10.70;;;18.70;34.40;;;;;;5035269;28;20030;-68
2021/05/22 11:21:25;;;;;;;21.05;10.15;;;18.50;33.10;;;;;;5000950;28;20441;-68
2021/05/22 11:24:05;;;;;;;20.13;9.88;;;18.50;33.20;;;;;;5030433;28;20563;-67
2021/05/22 11:26:56;;;;;;;22.52;11.65;;;18.70;33.90;;;;;;5020787;28;20499;-67
2021/05/22 11:29:24;;;;;;;6.53;2.17;;;18.90;32.50;;;;;;5033548;28;20487;-67
2021/05/22 11:31:50;;;;;;;41.08;22.17;;;18.90;31.30;;;;;;5047428;28;20025;-68
2021/05/22 11:34:25;;;;;;;16.92;8.85;;;19.10;35.00;;;;;;5027468;28;20472;-68
2021/05/22 11:37:09;;;;;;;14.93;7.95;;;18.90;32.00;;;;;;5038424;28;20033;-67
2021/05/22 11:39:36;;;;;;;13.23;6.43;;;19.00;35.20;;;;;;5048251;28;20068;-68
2021/05/22 11:42:31;;;;;;;5.03;2.50;;;19.00;32.70;;;;;;5037425;28;20028;-67
2021/05/22 11:44:59;;;;;;;7.53;3.90;;;18.90;31.90;;;;;;5027586;28;20022;-67
2021/05/22 11:47:32;;;;;;;10.20;4.05;;;18.80;32.40;;;;;;5044945;28;20021;-68
2021/05/22 11:49:58;;;;;;;5.20;2.28;;;18.70;32.60;;;;;;5037634;28;20021;-69
2021/05/22 11:52:30;;;;;;;10.57;4.78;;;18.80;32.30;;;;;;5042807;28;20029;-69
2021/05/22 11:54:57;;;;;;;7.45;3.08;;;19.00;30.80;;;;;;5035525;28;20534;-68
2021/05/22 11:57:23;;;;;;;15.88;8.18;;;19.20;30.50;;;;;;5045300;28;20390;-68
2021/05/22 11:59:49;;;;;;;12.38;5.72;;;19.50;32.10;;;;;;5020369;28;20021;-66
2021/05/22 12:02:37;;;;;;;15.93;8.27;;;19.60;31.10;;;;;;5043255;28;20026;-69
2021/05/22 12:05:05;;;;;;;463.80;330.63;;;19.70;30.40;;;;;;5045601;28;20017;-68
2021/05/22 12:07:56;;;;;;;37.53;22.13;;;19.90;31.40;;;;;;5023853;28;20029;-66
2021/05/22 12:10:28;;;;;;;10.05;4.95;;;20.00;31.90;;;;;;5033460;28;20025;-70
2021/05/22 12:13:01;;;;;;;10.98;5.80;;;20.30;31.70;;;;;;5022931;28;20021;-68
2021/05/22 12:15:28;;;;;;;5.50;3.05;;;20.30;30.90;;;;;;5045675;28;20084;-67
2021/05/22 12:17:58;;;;;;;34.92;21.35;;;20.50;31.60;;;;;;5035013;28;20028;-69
2021/05/22 12:20:26;;;;;;;34.47;21.15;;;20.50;31.90;;;;;;5041944;28;20025;-68
2021/05/22 12:22:51;;;;;;;6.75;4.25;;;20.40;32.10;;;;;;5023234;28;20026;-68
2021/05/22 12:25:17;;;;;;;28.58;16.77;;;20.50;30.10;;;;;;5045653;28;20082;-67
2021/05/22 12:27:43;;;;;;;38.92;23.38;;;20.50;30.70;;;;;;5016290;28;20079;-68
2021/05/22 12:30:09;;;;;;;9.05;4.47;;;20.50;33.00;;;;;;5027564;28;20438;-68
2021/05/22 12:32:34;;;;;;;12.05;5.15;;;20.40;30.40;;;;;;5042234;28;20029;-67
2021/05/22 12:35:08;;;;;;;33.90;18.55;;;20.40;31.10;;;;;;5029617;28;20026;-67
2021/05/22 12:37:35;;;;;;;16.90;8.88;;;20.50;32.50;;;;;;5029689;28;20029;-66
2021/05/22 12:40:09;;;;;;;77.68;52.63;;;20.50;32.00;;;;;;5043244;28;20103;-67
2021/05/22 12:42:37;;;;;;;42.25;27.38;;;20.50;31.60;;;;;;5040381;28;20025;-67
2021/05/22 12:45:10;;;;;;;40.22;25.02;;;20.70;31.70;;;;;;5023914;28;20109;-67
2021/05/22 12:47:45;;;;;;;14.63;9.05;;;20.60;31.60;;;;;;5040095;28;20053;-68
2021/05/22 12:50:12;;;;;;;27.77;16.80;;;20.30;31.80;;;;;;5031763;28;20082;-68
2021/05/22 12:52:51;;;;;;;45.55;29.45;;;20.10;31.70;;;;;;5016688;28;20030;-69
2021/05/22 12:55:30;;;;;;;38.97;23.05;;;20.40;32.70;;;;;;5041902;28;20044;-67